Flight Track Log - Related Links

Times and Time Zones

All times are in EDT time to prevent confusion due to time zone crossing. See the UCA596 flight status page for this flight to view local times or setup timezone preferences in your user account.

Time Position Orientation Groundspeed Altitude Reporting Facility
EDT Latitude Longitude Course Direction KTS MPH feet Rate Location/Type
Wed 01:28:29 PM 38.9500 -77.5000 322° Northwest 131 151 2,000  Level Potomac TRACON
Wed 01:29:29 PM 38.9833 -77.5333 322° Northwest 150 173 3,600 1,700 Climbing Potomac TRACON
Wed 01:30:29 PM 39.0333 -77.5500 345° North 156 180 5,400 1,650 Climbing Potomac TRACON
Wed 01:31:29 PM 39.0833 -77.5500 360° North 169 194 6,900 1,500 Climbing Potomac TRACON
Wed 01:32:29 PM 39.1167 -77.5833 322° Northwest 175 201 8,400 1,450 Climbing Potomac TRACON
Wed 01:33:29 PM 39.1500 -77.6167 322° Northwest 182 209 9,800 1,400 Climbing Potomac TRACON
Wed 01:34:29 PM 39.2000 -77.6500 333° Northwest 191 220 11,200 992 Climbing Potomac TRACON
Wed 01:35:42 PM 39.2431 -77.7061 315° West 206 237 12,000 361 Climbing Washington Center
Wed 01:36:42 PM 39.2983 -77.7586 324° Northwest 220 253 12,000  Level Washington Center
Wed 01:37:40 PM 39.3472 -77.8111 320° Northwest 231 266 12,000  Level Washington Center
Wed 01:38:40 PM 39.4069 -77.8531 332° Northwest 236 272 12,000  Level Washington Center
Wed 01:39:42 PM 39.4800 -77.8528 360° North 236 272 12,000  Level Washington Center
Wed 01:40:42 PM 39.5508 -77.8522 360° North 246 283 12,000 316 Level Washington Center
Wed 01:42:52 PM 39.7006 -77.8544 359° North 245 282 13,000 316 Climbing New York Center
Wed 01:43:52 PM 39.7622 -77.8011 34° Northeast 240 276 13,000  Level New York Center
Wed 01:44:52 PM 39.8261 -77.7456 34° Northeast 257 296 13,000  Level New York Center
Wed 01:45:52 PM 39.8878 -77.6892 35° Northeast 269 310 13,000  Level New York Center
Wed 01:46:52 PM 39.9514 -77.6333 34° Northeast 274 315 13,000  Level New York Center
Wed 01:47:52 PM 40.0189 -77.5831 30° Northeast 274 315 13,000  Level New York Center
Wed 01:48:52 PM 40.0944 -77.5414 23° Northeast 268 308 13,000  Level New York Center
Wed 01:49:52 PM 40.1569 -77.5042 24° Northeast 268 308 13,000  Level New York Center
Wed 01:50:52 PM 40.2306 -77.4569 26° Northeast 268 308 13,000  Level New York Center
Wed 01:51:52 PM 40.2911 -77.4192 25° Northeast 268 308 13,000  Level New York Center
Wed 01:52:52 PM 40.3664 -77.3744 24° Northeast 263 303 13,000  Level New York Center
Wed 01:53:52 PM 40.4269 -77.3367 25° Northeast 263 303 13,000  Level New York Center
Wed 01:54:52 PM 40.5008 -77.2836 29° Northeast 269 310 13,000  Level New York Center
Wed 01:55:52 PM 40.5617 -77.2403 28° Northeast 274 315 13,000  Level New York Center
Wed 01:56:52 PM 40.6356 -77.1842 30° Northeast 279 321 13,000  Level New York Center
Wed 01:57:52 PM 40.6939 -77.1433 28° Northeast 279 321 13,000  Level New York Center
Wed 01:58:52 PM 40.7614 -77.0919 30° Northeast 279 321 13,000  Level New York Center
Wed 01:59:52 PM 40.8264 -77.0431 30° Northeast 279 321 13,000  Level New York Center
Wed 02:00:52 PM 40.8981 -76.9892 30° Northeast 273 314 13,000  Level New York Center
Wed 02:01:52 PM 40.9567 -76.9450 30° Northeast 273 314 13,000  Level New York Center
Wed 02:02:52 PM 41.0239 -76.8961 29° Northeast 273 314 13,000 50 Level New York Center
Wed 02:03:52 PM 41.0889 -76.8442 31° Northeast 273 314 13,100 50 Climbing New York Center
Wed 02:04:52 PM 41.1561 -76.7950 29° Northeast 268 308 13,100  Level New York Center
Wed 02:05:52 PM 41.2211 -76.7431 31° Northeast 268 308 13,100  Level New York Center
Wed 02:06:52 PM 41.2883 -76.6936 29° Northeast 268 308 13,100  Level New York Center
Wed 02:07:52 PM 41.3600 -76.6364 31° Northeast 273 314 13,100  Level New York Center
Wed 02:08:52 PM 41.4250 -76.5839 31° Northeast 273 314 13,100  Level New York Center
Wed 02:09:52 PM 41.4917 -76.5372 28° Northeast 273 314 13,100  Level New York Center
Wed 02:10:52 PM 41.5503 -76.4922 30° Northeast 273 314 13,100  Level New York Center
Wed 02:11:52 PM 41.6172 -76.4397 30° Northeast 279 321 13,100 -50 Level New York Center
Wed 02:12:52 PM 41.6886 -76.3875 29° Northeast 279 321 13,000 -550 Descending New York Center
Wed 02:13:52 PM 41.7556 -76.3319 32° Northeast 274 315 12,000 -1,050 Descending New York Center
Wed 02:14:52 PM 41.8225 -76.2817 29° Northeast 279 321 10,900 -1,200 Descending New York Center
Wed 02:15:52 PM 41.8831 -76.2367 29° Northeast 279 321 9,600 -1,250 Descending New York Center
Wed 02:16:52 PM 41.9436 -76.1858 32° Northeast 266 306 8,400 -1,400 Descending New York Center
Wed 02:17:52 PM 42.0083 -76.1381 29° Northeast 248 285 6,800 -1,450 Descending New York Center
Wed 02:18:52 PM 42.0664 -76.0925 30° Northeast 243 280 5,500 -1,250 Descending New York Center
Wed 02:19:52 PM 42.1206 -76.0439 34° Northeast 238 274 4,300 -850 Descending New York Center
Wed 02:20:52 PM 42.1544 -75.9850 52° Northeast 214 246 3,800 -600 Descending New York Center
Wed 02:21:52 PM 42.1736 -75.9306 65° Northeast 180 207 3,100 -800 Descending New York Center
Wed 02:22:52 PM 42.2042 -75.9414 345° North 122 140 2,200 -450 Descending New York Center
Wed 02:23:52 PM 42.2367 -75.9131 33° Northeast 122 140 2,200 3,400 Level New York Center
Wed 02:24:52 PM 42.2686 -75.8961 21° North 122 140 9,000 3,400 Climbing New York Center
Wed 02:25:52 PM 42.3008 -75.8761 25° Northeast 122 140 9,000  Level New York Center
Wed 02:26:52 PM 42.3328 -75.8589 22° Northeast 122 140 9,000  Level New York Center
Wed 02:27:52 PM 42.3328 -75.8589 160° South 122 140 9,000  Level New York Center

Login

Don't have an account? Register now (free) for customized features, flight alerts, and more!